Time;durP1;ratioP1;P1;durP2;ratioP2;P2;SDS_P1;SDS_P2;PMS_P1;PMS_P2;Temp;Humidity;BMP_temperature;BMP_pressure;BME280_temperature;BME280_humidity;BME280_pressure;Samples;Min_cycle;Max_cycle;Signal;HPM_P1;HPM_P2
2022/03/26 00:00:39;;;;;;;63.17;31.07;;;;;;;7.45;51.93;101008.77;1787416;80;25367;-71
2022/03/26 00:03:08;;;;;;;64.53;31.30;;;;;;;7.44;51.93;100999.62;1787394;80;25402;-70
2022/03/26 00:05:35;;;;;;;69.50;30.82;;;;;;;7.44;52.06;101006.35;1787446;80;25489;-71
2022/03/26 00:08:01;;;;;;;61.45;28.57;;;;;;;7.42;51.96;101001.27;1787457;80;27430;-71
2022/03/26 00:10:28;;;;;;;59.30;29.23;;;;;;;7.41;52.63;100992.91;1787420;80;25586;-70
2022/03/26 00:12:56;;;;;;;63.40;30.45;;;;;;;7.41;52.35;100994.25;1787428;80;25561;-71
2022/03/26 00:15:22;;;;;;;70.47;33.18;;;;;;;7.43;52.47;100987.26;1787296;80;25794;-71
2022/03/26 00:17:49;;;;;;;63.08;30.12;;;;;;;7.44;52.48;100986.99;1787481;80;25558;-71
2022/03/26 00:20:15;;;;;;;59.93;31.97;;;;;;;7.45;52.38;100987.79;1787433;80;27920;-71
2022/03/26 00:22:42;;;;;;;61.05;30.70;;;;;;;7.44;53.07;100983.47;1787350;80;25456;-71
2022/03/26 00:25:10;;;;;;;57.80;31.35;;;;;;;7.42;52.53;100973.00;1787429;80;25418;-71
2022/03/26 00:27:36;;;;;;;58.63;29.87;;;;;;;7.39;52.69;100974.88;1787392;80;25614;-71
2022/03/26 00:30:05;;;;;;;68.57;47.62;;;;;;;7.37;53.48;100964.93;1787474;80;25364;-71
2022/03/26 00:32:31;;;;;;;64.10;32.05;;;;;;;7.35;52.93;100963.03;1787521;80;27885;-70
2022/03/26 00:34:58;;;;;;;65.35;32.90;;;;;;;7.33;52.82;100976.50;1787322;80;25386;-70
2022/03/26 00:37:25;;;;;;;56.28;31.02;;;;;;;7.28;52.75;100975.95;1787427;80;25466;-70
2022/03/26 00:39:52;;;;;;;61.20;33.02;;;;;;;7.23;53.54;100964.65;1787464;80;26339;-70
2022/03/26 00:42:19;;;;;;;60.63;31.50;;;;;;;7.21;53.40;100966.01;1787387;80;25599;-70
2022/03/26 00:44:45;;;;;;;56.60;31.12;;;;;;;7.18;53.78;100970.03;1787444;80;27299;-71
2022/03/26 00:47:11;;;;;;;57.40;31.40;;;;;;;7.16;53.47;100968.70;1787326;80;25630;-72
2022/03/26 00:49:37;;;;;;;62.90;33.50;;;;;;;7.10;54.36;100964.66;1787415;80;29742;-71
2022/03/26 00:52:04;;;;;;;61.08;32.88;;;;;;;7.08;53.95;100961.96;1787340;80;25628;-71
2022/03/26 00:54:32;;;;;;;63.87;31.65;;;;;;;7.06;54.46;100960.88;1787394;80;25432;-71
2022/03/26 00:56:58;;;;;;;57.33;30.43;;;;;;;7.04;54.66;100959.00;1787415;80;27237;-71
2022/03/26 00:59:24;;;;;;;61.02;31.80;;;;;;;7.01;54.15;100959.53;1787330;80;25441;-71
2022/03/26 01:01:51;;;;;;;55.78;29.40;;;;;;;7.01;54.36;100958.73;1787402;80;25546;-71
2022/03/26 01:04:17;;;;;;;57.83;31.17;;;;;;;6.97;54.36;100956.33;1787390;80;25680;-71
2022/03/26 01:06:44;;;;;;;62.55;31.68;;;;;;;6.96;54.34;100954.16;1787433;80;25441;-71
2022/03/26 01:09:11;;;;;;;61.40;30.70;;;;;;;6.94;54.62;100953.62;1787407;80;28137;-71
2022/03/26 01:11:37;;;;;;;60.85;30.77;;;;;;;6.90;55.21;100943.94;1787321;80;25682;-71
2022/03/26 01:14:03;;;;;;;63.40;30.50;;;;;;;6.91;55.42;100951.46;1787394;80;25393;-71
2022/03/26 01:16:30;;;;;;;65.20;29.80;;;;;;;6.87;55.40;100943.13;1787336;80;25609;-71
2022/03/26 01:18:57;;;;;;;59.55;28.10;;;;;;;6.88;55.86;100949.33;1787412;80;25384;-71
2022/03/26 01:21:26;;;;;;;50.00;28.75;;;;;;;6.86;56.04;100940.19;1787404;80;27322;-71
2022/03/26 01:23:52;;;;;;;52.53;29.02;;;;;;;6.87;55.72;100937.75;1787444;80;25638;-71
2022/03/26 01:26:19;;;;;;;55.10;29.92;;;;;;;6.87;55.66;100940.98;1787357;80;25571;-71
2022/03/26 01:28:46;;;;;;;50.48;29.10;;;;;;;6.85;55.77;100938.56;1787364;80;26261;-71
2022/03/26 01:31:12;;;;;;;57.73;29.98;;;;;;;6.84;56.07;100936.13;1787409;80;25608;-71
2022/03/26 01:33:39;;;;;;;53.17;29.37;;;;;;;6.82;55.40;100940.44;1787371;80;27981;-71
2022/03/26 01:36:08;;;;;;;61.25;29.12;;;;;;;6.81;55.36;100944.73;1787254;80;25603;-71
2022/03/26 01:38:35;;;;;;;54.33;28.05;;;;;;;6.77;55.29;100931.56;1787363;80;25448;-69
2022/03/26 01:41:01;;;;;;;48.63;26.20;;;;;;;6.70;56.06;100931.83;1787236;80;25639;-70
2022/03/26 01:43:27;;;;;;;59.90;29.52;;;;;;;6.66;56.28;100933.44;1760544;80;25549;-70
2022/03/26 01:45:53;;;;;;;51.25;27.93;;;;;;;6.64;56.11;100926.16;1787304;80;27356;-70
2022/03/26 01:48:20;;;;;;;55.58;27.13;;;;;;;6.61;55.65;100924.83;1787298;80;25393;-70
2022/03/26 01:50:46;;;;;;;100.02;90.40;;;;;;;6.55;56.13;100913.78;1787370;80;25623;-70
2022/03/26 01:53:12;;;;;;;47.98;25.65;;;;;;;6.52;56.57;100917.83;1787337;80;25653;-70
2022/03/26 01:55:39;;;;;;;99.95;90.38;;;;;;;6.49;56.29;100909.49;1787309;80;25374;-70
2022/03/26 01:58:06;;;;;;;101.50;91.37;;;;;;;6.41;56.91;100904.09;1787326;80;27337;-70
2022/03/26 02:00:34;;;;;;;100.53;90.90;;;;;;;6.38;57.25;100903.81;1787309;80;25661;-71
2022/03/26 02:03:00;;;;;;;101.92;92.17;;;;;;;6.36;57.28;100909.45;1787430;80;25553;-70
2022/03/26 02:05:28;;;;;;;90.25;81.08;;;;;;;6.33;57.58;100901.41;1787419;80;25689;-71
2022/03/26 02:07:55;;;;;;;55.50;26.77;;;;;;;6.33;57.34;100897.38;1787390;80;25509;-71
2022/03/26 02:10:22;;;;;;;51.90;24.37;;;;;;;6.31;57.45;100891.44;1787365;80;27303;-71
2022/03/26 02:12:48;;;;;;;50.08;25.57;;;;;;;6.28;57.44;100891.98;1787240;80;25556;-71
2022/03/26 02:15:16;;;;;;;50.67;24.00;;;;;;;6.28;57.83;100894.67;1787279;80;25536;-70
2022/03/26 02:17:43;;;;;;;46.42;25.77;;;;;;;6.27;57.84;100890.36;1787342;80;25557;-70
2022/03/26 02:20:13;;;;;;;55.38;27.02;;;;;;;6.25;58.70;100887.14;1787362;80;25564;-70
2022/03/26 02:22:41;;;;;;;50.15;26.42;;;;;;;6.24;58.55;100882.83;1787378;80;27888;-70
2022/03/26 02:25:09;;;;;;;46.75;24.30;;;;;;;6.25;58.46;100883.63;1787237;80;25550;-70
2022/03/26 02:27:37;;;;;;;60.67;27.27;;;;;;;6.22;59.19;100872.89;1787308;80;25386;-70
2022/03/26 02:30:06;;;;;;;51.45;25.77;;;;;;;6.25;58.88;100872.88;1787109;80;25730;-70
2022/03/26 02:32:35;;;;;;;48.75;25.95;;;;;;;6.24;58.87;100867.25;1787508;80;25381;-70
2022/03/26 02:35:04;;;;;;;50.67;26.35;;;;;;;6.23;58.75;100865.11;1787427;80;27323;-70
2022/03/26 02:37:32;;;;;;;51.93;25.37;;;;;;;6.20;59.45;100862.95;1787424;80;25614;-70
2022/03/26 02:40:00;;;;;;;53.50;26.05;;;;;;;6.17;59.24;100861.58;1787290;80;25537;-70
2022/03/26 02:42:27;;;;;;;61.70;28.10;;;;;;;6.14;59.50;100851.36;1780158;80;25659;-70
2022/03/26 02:44:54;;;;;;;52.40;27.52;;;;;;;6.13;59.81;100852.97;1777335;80;25465;-70
2022/03/26 02:47:20;;;;;;;57.23;27.62;;;;;;;6.11;59.58;100846.55;1777338;80;27395;-70
2022/03/26 02:49:47;;;;;;;54.75;28.75;;;;;;;6.09;59.66;100850.56;1767408;80;25380;-70
2022/03/26 02:52:13;;;;;;;52.00;27.82;;;;;;;6.08;60.33;100834.16;1775991;80;25517;-70
2022/03/26 02:54:41;;;;;;;53.40;27.42;;;;;;;6.06;60.07;100834.45;1759298;80;25645;-70
2022/03/26 02:57:07;;;;;;;56.37;27.60;;;;;;;6.06;60.46;100826.91;1775984;80;25446;-70
2022/03/26 02:59:33;;;;;;;49.00;24.00;;;;;;;6.06;60.31;100820.20;1759384;80;28135;-70
2022/03/26 03:02:00;;;;;;;48.68;24.60;;;;;;;6.05;61.05;100819.94;1759418;81;25518;-70
2022/03/26 03:04:26;;;;;;;51.98;25.62;;;;;;;6.06;60.50;100821.54;1775987;80;25422;-70
2022/03/26 03:06:53;;;;;;;51.45;25.65;;;;;;;6.07;61.03;100819.93;1759305;81;27759;-71
2022/03/26 03:09:20;;;;;;;46.50;24.35;;;;;;;6.09;60.81;100811.06;1776074;80;25412;-71
2022/03/26 03:11:48;;;;;;;51.05;25.37;;;;;;;6.11;60.81;100808.12;1759381;81;27389;-71
2022/03/26 03:14:15;;;;;;;51.53;26.15;;;;;;;6.11;61.62;100808.12;1775865;80;25388;-69
2022/03/26 03:16:42;;;;;;;54.85;27.13;;;;;;;6.14;61.18;100807.05;1759265;81;25559;-71
2022/03/26 03:19:10;;;;;;;54.93;26.80;;;;;;;6.16;61.25;100803.58;1775950;80;25615;-71
2022/03/26 03:21:36;;;;;;;58.13;25.17;;;;;;;6.19;61.43;100800.09;1759367;81;25572;-70
2022/03/26 03:24:04;;;;;;;58.92;27.02;;;;;;;6.20;61.45;100802.50;1759376;81;27328;-69
2022/03/26 03:26:31;;;;;;;48.52;24.00;;;;;;;6.22;61.08;100805.73;1759291;81;25639;-69
2022/03/26 03:29:00;;;;;;;56.80;25.57;;;;;;;6.24;61.24;100804.92;1775997;80;25603;-69
2022/03/26 03:31:28;;;;;;;56.65;28.60;;;;;;;6.26;61.61;100791.22;1773925;80;26398;-69
2022/03/26 03:33:54;;;;;;;54.27;25.35;;;;;;;6.29;61.85;100800.89;1775944;80;25518;-69
2022/03/26 03:36:21;;;;;;;50.65;26.00;;;;;;;6.31;61.69;100804.11;1759390;80;27329;-70
2022/03/26 03:38:48;;;;;;;52.93;26.85;;;;;;;6.33;61.65;100793.92;1775845;80;25522;-70
2022/03/26 03:41:14;;;;;;;50.52;26.37;;;;;;;6.39;62.15;100791.24;1760482;80;25380;-70
2022/03/26 03:43:40;;;;;;;53.65;25.50;;;;;;;6.41;61.58;100791.23;1774400;80;25632;-70
2022/03/26 03:46:08;;;;;;;52.35;25.68;;;;;;;6.43;61.34;100785.59;1774307;80;25599;-70
2022/03/26 03:48:34;;;;;;;51.77;25.85;;;;;;;6.43;61.34;100787.73;1774359;80;27435;-70
2022/03/26 03:51:01;;;;;;;49.18;25.45;;;;;;;6.45;61.69;100788.29;1774230;80;25638;-70
2022/03/26 03:53:27;;;;;;;50.45;26.30;;;;;;;6.48;61.97;100785.03;1774292;80;25434;-70
2022/03/26 03:55:53;;;;;;;55.05;25.40;;;;;;;6.52;62.16;100784.78;1774211;80;25687;-70
2022/03/26 03:58:19;;;;;;;48.85;24.12;;;;;;;6.57;62.24;100786.64;1774357;80;25498;-70
2022/03/26 04:00:45;;;;;;;52.10;24.85;;;;;;;6.59;61.80;100783.69;1774325;80;27940;-70
2022/03/26 04:03:12;;;;;;;51.83;24.55;;;;;;;6.72;61.81;100790.69;1774173;80;25802;-70
2022/03/26 04:05:39;;;;;;;54.05;24.75;;;;;;;6.67;62.95;100769.16;1774291;80;25547;-71
2022/03/26 04:08:06;;;;;;;52.27;26.33;;;;;;;6.75;61.86;100768.37;1774250;80;27715;-71
2022/03/26 04:10:33;;;;;;;53.87;24.45;;;;;;;6.78;61.91;100753.05;1774315;80;25574;-69
2022/03/26 04:12:59;;;;;;;64.30;24.95;;;;;;;6.82;62.80;100748.17;1774367;80;27975;-71
2022/03/26 04:15:25;;;;;;;51.25;23.57;;;;;;;6.85;61.79;100749.53;1774264;80;25210;-70
2022/03/26 04:17:52;;;;;;;51.20;26.42;;;;;;;6.87;62.47;100741.98;1773651;80;25527;-70
2022/03/26 04:20:19;;;;;;;50.67;24.92;;;;;;;6.94;61.78;100745.19;1774260;80;25622;-70
2022/03/26 04:22:45;;;;;;;48.68;26.90;;;;;;;6.97;61.67;100745.99;1774310;80;25591;-70
2022/03/26 04:25:11;;;;;;;52.58;26.82;;;;;;;6.98;61.62;100736.86;1774316;80;27380;-70
2022/03/26 04:27:43;;;;;;;53.98;26.27;;;;;;;7.00;61.42;100733.86;1774257;80;25801;-70
2022/03/26 04:30:12;;;;;;;53.58;26.00;;;;;;;7.00;62.06;100729.83;1774457;80;25580;-70
2022/03/26 04:32:38;;;;;;;51.35;25.85;;;;;;;6.99;61.36;100726.34;1774484;80;26156;-70
2022/03/26 04:35:06;;;;;;;53.00;23.90;;;;;;;6.99;61.61;100725.55;1774543;80;25667;-70
2022/03/26 04:37:34;;;;;;;53.08;25.15;;;;;;;6.99;61.29;100728.23;1774432;80;27414;-70
2022/03/26 04:40:05;;;;;;;52.30;24.72;;;;;;;7.00;61.61;100721.77;1774337;80;25667;-70
2022/03/26 04:42:31;;;;;;;54.30;25.00;;;;;;;7.00;62.10;100715.86;1764234;80;25440;-70
2022/03/26 04:44:57;;;;;;;50.63;23.18;;;;;;;7.04;61.48;100722.30;1752769;81;25617;-69
2022/03/26 04:47:24;;;;;;;52.83;24.37;;;;;;;7.03;61.79;100728.77;1752814;81;25477;-69
2022/03/26 04:49:50;;;;;;;50.83;23.95;;;;;;;7.06;61.82;100725.51;1752791;81;27379;-70
2022/03/26 04:52:16;;;;;;;50.45;23.05;;;;;;;7.10;61.90;100725.79;1752704;81;25639;-70
2022/03/26 04:54:43;;;;;;;45.80;23.32;;;;;;;7.14;61.99;100716.62;1752791;81;25406;-70
2022/03/26 04:57:10;;;;;;;47.95;21.97;;;;;;;7.16;61.67;100719.84;1752712;81;25685;-70
2022/03/26 04:59:36;;;;;;;44.98;23.18;;;;;;;7.20;62.24;100724.92;1752789;81;25627;-70
2022/03/26 05:02:02;;;;;;;51.90;23.65;;;;;;;7.25;62.03;100722.21;1752718;81;27367;-70
2022/03/26 05:04:29;;;;;;;46.88;24.47;;;;;;;7.36;61.88;100725.68;1752684;81;25552;-70
2022/03/26 05:06:55;;;;;;;49.23;24.52;;;;;;;7.33;61.57;100719.50;1752780;81;25453;-70
2022/03/26 05:09:21;;;;;;;49.33;24.82;;;;;;;7.35;61.58;100714.64;1752802;81;25694;-70
2022/03/26 05:11:47;;;;;;;48.25;24.23;;;;;;;7.38;61.19;100714.89;1752885;81;25615;-71
2022/03/26 05:14:14;;;;;;;49.93;25.43;;;;;;;7.37;62.52;100713.81;1752899;81;27312;-70
2022/03/26 05:16:40;;;;;;;47.60;25.12;;;;;;;7.37;61.39;100707.91;1752761;81;25636;-71
2022/03/26 05:19:06;;;;;;;49.93;27.22;;;;;;;7.40;61.51;100702.50;1752872;81;25393;-70
2022/03/26 05:21:32;;;;;;;49.77;25.02;;;;;;;7.41;61.46;100704.92;1752791;81;34672;-70
2022/03/26 05:23:59;;;;;;;43.92;24.23;;;;;;;7.44;62.67;100688.22;1756519;81;25642;-70
2022/03/26 05:26:25;;;;;;;50.05;23.40;;;;;;;7.48;61.27;100687.12;1752725;81;27361;-70
2022/03/26 05:28:51;;;;;;;46.83;21.27;;;;;;;7.51;61.50;100680.36;1752622;81;25488;-70
2022/03/26 05:31:18;;;;;;;48.83;25.45;;;;;;;7.56;61.44;100679.80;1752760;81;25607;-70
2022/03/26 05:33:44;;;;;;;48.92;23.42;;;;;;;7.64;61.83;100678.39;1752685;81;25607;-70
2022/03/26 05:36:10;;;;;;;44.70;21.85;;;;;;;7.72;62.03;100669.73;1752741;81;25572;-70
2022/03/26 05:38:37;;;;;;;51.20;24.98;;;;;;;7.83;61.74;100678.53;1752735;81;27313;-70
2022/03/26 05:41:04;;;;;;;55.80;24.80;;;;;;;7.93;61.78;100669.02;1752644;81;25587;-70
2022/03/26 05:43:30;;;;;;;41.60;20.40;;;;;;;8.01;61.19;100656.30;1768661;80;25542;-70
2022/03/26 05:45:56;;;;;;;47.65;24.90;;;;;;;8.05;60.96;100667.31;1773728;80;25736;-70
2022/03/26 05:48:23;;;;;;;43.95;21.82;;;;;;;8.11;60.86;100672.92;1774387;80;25457;-70
2022/03/26 05:50:50;;;;;;;48.10;24.00;;;;;;;8.11;61.09;100663.50;1785443;80;27315;-70
2022/03/26 05:53:16;;;;;;;47.60;24.07;;;;;;;8.13;60.64;100677.48;1787268;80;25451;-70
2022/03/26 05:55:42;;;;;;;44.58;23.38;;;;;;;8.21;60.84;100677.43;1787312;80;25570;-70
2022/03/26 05:58:10;;;;;;;49.23;22.77;;;;;;;8.29;60.70;100676.00;1787328;80;25622;-70
2022/03/26 06:00:37;;;;;;;49.40;23.02;;;;;;;8.41;60.57;100678.59;1787388;80;25396;-70
2022/03/26 06:03:04;;;;;;;39.85;21.20;;;;;;;8.56;60.48;100683.58;1787342;80;27957;-71
2022/03/26 06:05:30;;;;;;;43.00;21.87;;;;;;;8.69;60.12;100686.16;1787258;80;25480;-71
2022/03/26 06:07:57;;;;;;;46.80;23.07;;;;;;;8.88;59.97;100681.61;1787361;80;25583;-72
2022/03/26 06:10:27;;;;;;;41.02;22.85;;;;;;;9.02;59.53;100680.36;1787347;80;25717;-72
2022/03/26 06:12:54;;;;;;;46.05;22.70;;;;;;;9.15;59.09;100674.26;1787404;80;25390;-72
2022/03/26 06:15:21;;;;;;;47.62;21.52;;;;;;;9.26;58.76;100674.95;1787313;80;27425;-71
2022/03/26 06:17:47;;;;;;;46.37;23.83;;;;;;;9.38;58.53;100669.64;1787266;80;25622;-72
2022/03/26 06:20:13;;;;;;;43.80;22.35;;;;;;;9.47;58.50;100670.61;1787434;80;25433;-72
2022/03/26 06:22:39;;;;;;;52.48;26.45;;;;;;;9.60;58.14;100662.31;1787282;80;25596;-71
2022/03/26 06:25:07;;;;;;;50.90;25.68;;;;;;;9.79;58.14;100669.04;1787338;80;25382;-71
2022/03/26 06:27:33;;;;;;;44.00;22.15;;;;;;;9.90;57.54;100651.02;1787320;80;27311;-69
2022/03/26 06:30:00;;;;;;;52.05;25.82;;;;;;;10.05;57.42;100644.56;1787268;80;25451;-71
2022/03/26 06:32:26;;;;;;;47.38;24.85;;;;;;;10.21;56.97;100647.00;1787334;80;25554;-71
2022/03/26 06:34:53;;;;;;;41.80;22.42;;;;;;;10.37;57.05;100638.08;1787366;80;26216;-71
2022/03/26 06:37:21;;;;;;;51.68;21.77;;;;;;;10.54;56.51;100634.79;1787370;80;25590;-71
2022/03/26 06:39:48;;;;;;;46.45;20.80;;;;;;;10.76;56.21;100632.73;1787387;80;27334;-71
2022/03/26 06:42:14;;;;;;;42.80;19.15;;;;;;;10.92;55.88;100615.09;1787291;80;25714;-71
2022/03/26 06:44:40;;;;;;;40.33;21.05;;;;;;;11.09;55.44;100621.79;1787776;80;25454;-71
2022/03/26 06:47:07;;;;;;;38.38;20.68;;;;;;;11.30;55.01;100622.12;1787787;80;26117;-71
2022/03/26 06:49:34;;;;;;;44.63;20.95;;;;;;;11.58;54.59;100639.89;1781453;79;25336;-72
2022/03/26 06:52:00;;;;;;;46.30;21.25;;;;;;;11.69;53.78;100634.23;1792618;79;27080;-72
2022/03/26 06:54:27;;;;;;;48.52;20.68;;;;;;;11.91;53.85;100613.13;1763863;81;25608;-72
2022/03/26 06:56:54;;;;;;;38.70;20.08;;;;;;;12.02;53.27;100629.38;1776849;80;27073;-72
2022/03/26 06:59:21;;;;;;;35.25;18.98;;;;;;;12.19;52.97;100631.39;1776525;80;25615;-72
2022/03/26 07:01:47;;;;;;;30.77;15.98;;;;;;;12.39;52.61;100634.09;1766374;80;25650;-71
2022/03/26 07:04:13;;;;;;;34.98;18.85;;;;;;;12.42;52.30;100643.53;1785578;80;27332;-71
2022/03/26 07:06:40;;;;;;;35.13;18.32;;;;;;;12.40;51.95;100632.99;1756324;80;25431;-71
2022/03/26 07:09:06;;;;;;;35.65;18.02;;;;;;;12.60;52.24;100622.14;1774919;80;25605;-71
2022/03/26 07:11:32;;;;;;;39.63;19.05;;;;;;;12.92;52.28;100630.20;1781001;80;26171;-73
2022/03/26 07:13:59;;;;;;;25.52;16.07;;;;;;;13.35;51.48;100628.11;1763592;80;25648;-72
2022/03/26 07:16:25;;;;;;;24.72;14.40;;;;;;;13.60;50.30;100613.75;1766153;80;27874;-72
2022/03/26 07:18:53;;;;;;;28.07;14.70;;;;;;;13.83;50.43;100613.55;1792757;80;25637;-72
2022/03/26 07:21:20;;;;;;;71.33;64.95;;;;;;;14.11;49.46;100613.94;1799125;79;25547;-71
2022/03/26 07:23:46;;;;;;;28.57;16.48;;;;;;;14.24;49.07;100603.98;1799058;79;26190;-73
2022/03/26 07:26:13;;;;;;;42.33;15.98;;;;;;;14.50;49.23;100626.21;1779293;80;25461;-72
2022/03/26 07:28:39;;;;;;;29.70;15.95;;;;;;;14.75;47.66;100627.24;1779279;80;27349;-74
2022/03/26 07:31:06;;;;;;;39.78;22.87;;;;;;;14.91;47.77;100629.64;1798964;79;25432;-72
2022/03/26 07:33:33;;;;;;;41.23;16.90;;;;;;;15.02;46.57;100618.36;1799041;79;25569;-72
2022/03/26 07:35:59;;;;;;;39.65;16.00;;;;;;;14.89;46.86;100608.72;1798751;79;25622;-71
2022/03/26 07:38:26;;;;;;;28.45;15.50;;;;;;;14.91;46.42;100610.58;1799097;79;25615;-71
2022/03/26 07:40:53;;;;;;;30.05;14.93;;;;;;;15.00;46.65;100608.34;1799105;79;27936;-71
2022/03/26 07:43:19;;;;;;;28.77;16.52;;;;;;;14.92;46.39;100607.28;1801091;79;25551;-71
2022/03/26 07:45:46;;;;;;;36.15;16.32;;;;;;;14.82;46.34;100609.03;1801673;79;25389;-72
2022/03/26 07:48:12;;;;;;;31.73;15.83;;;;;;;14.71;46.37;100604.50;1801683;79;25526;-72
2022/03/26 07:50:39;;;;;;;27.85;15.90;;;;;;;14.64;46.62;100617.30;1801677;79;25673;-72
2022/03/26 07:53:05;;;;;;;34.63;17.57;;;;;;;14.65;46.79;100596.31;1801557;79;27972;-71
2022/03/26 07:55:32;;;;;;;27.37;16.60;;;;;;;14.67;47.20;100603.01;1801886;79;25441;-72
2022/03/26 07:57:59;;;;;;;31.10;17.25;;;;;;;14.82;46.37;100611.17;1801848;79;25400;-72
2022/03/26 08:00:25;;;;;;;28.25;16.75;;;;;;;14.85;46.71;100597.48;1801688;79;26267;-73
2022/03/26 08:02:52;;;;;;;33.58;17.12;;;;;;;14.89;46.83;100606.58;1801879;79;25383;-72
2022/03/26 08:05:18;;;;;;;91.50;83.22;;;;;;;15.08;46.78;100611.00;1801380;79;27869;-72
2022/03/26 08:07:45;;;;;;;36.68;18.10;;;;;;;15.24;46.99;100610.42;1801378;79;25673;-72
2022/03/26 08:10:12;;;;;;;31.25;18.20;;;;;;;15.36;45.77;100605.03;1801970;79;25440;-71
2022/03/26 08:12:38;;;;;;;37.10;18.00;;;;;;;15.15;45.28;100614.55;1801736;79;25622;-72
2022/03/26 08:15:06;;;;;;;32.00;17.87;;;;;;;15.00;45.72;100618.69;1801824;79;25561;-71
2022/03/26 08:17:33;;;;;;;27.77;16.75;;;;;;;14.87;45.54;100604.75;1801493;79;27302;-73
2022/03/26 08:19:59;;;;;;;29.48;18.00;;;;;;;14.83;45.88;100611.42;1801514;79;25642;-71
2022/03/26 08:22:25;;;;;;;29.52;17.40;;;;;;;14.89;46.01;100614.17;1801522;79;25529;-73
2022/03/26 08:24:52;;;;;;;33.10;18.32;;;;;;;14.96;46.35;100608.77;1801475;79;25676;-72
2022/03/26 08:27:18;;;;;;;23.73;15.65;;;;;;;15.10;46.37;100600.59;1801449;79;25620;-73
2022/03/26 08:29:46;;;;;;;26.57;16.27;;;;;;;15.26;46.16;100606.23;1801387;79;27302;-73
2022/03/26 08:32:13;;;;;;;26.90;17.25;;;;;;;15.34;45.52;100614.66;1801333;79;25623;-73
2022/03/26 08:34:39;;;;;;;30.55;16.65;;;;;;;15.21;45.66;100606.43;1801482;79;25589;-72
2022/03/26 08:37:05;;;;;;;28.80;17.35;;;;;;;15.25;45.86;100605.20;1801445;79;26341;-73
2022/03/26 08:39:32;;;;;;;32.13;14.93;;;;;;;15.34;45.68;100601.84;1801424;79;25546;-74
2022/03/26 08:41:58;;;;;;;25.35;14.43;;;;;;;15.27;45.65;100619.28;1801517;79;27403;-73
2022/03/26 08:44:25;;;;;;;30.57;15.30;;;;;;;15.10;45.67;100621.56;1792342;79;25473;-74
2022/03/26 08:46:54;;;;;;;26.23;14.47;;;;;;;14.88;46.01;100613.14;1788622;80;25650;-74
2022/03/26 08:49:22;;;;;;;31.37;15.00;;;;;;;14.75;46.30;100607.61;1788178;80;25688;-74
2022/03/26 08:51:48;;;;;;;34.10;15.25;;;;;;;14.66;46.68;100611.50;1788504;80;25425;-74
2022/03/26 08:54:14;;;;;;;29.70;20.05;;;;;;;14.53;46.72;100619.55;1788540;80;27289;-74
2022/03/26 08:56:41;;;;;;;74.15;68.02;;;;;;;14.36;46.93;100616.91;1788351;80;25675;-73
2022/03/26 08:59:07;;;;;;;88.65;81.55;;;;;;;14.17;47.12;100624.89;1788532;80;25660;-73
2022/03/26 09:01:34;;;;;;;91.78;83.85;;;;;;;13.98;47.59;100636.72;1788473;80;25575;-74
2022/03/26 09:04:00;;;;;;;90.77;83.12;;;;;;;13.83;47.88;100632.01;1788633;80;25582;-72
2022/03/26 09:06:27;;;;;;;91.02;83.87;;;;;;;13.74;48.24;100637.20;1788472;80;27363;-72
2022/03/26 09:08:53;;;;;;;90.32;83.35;;;;;;;13.63;48.51;100634.03;1788532;80;25650;-73
2022/03/26 09:11:19;;;;;;;91.20;83.37;;;;;;;13.48;48.64;100638.59;1788493;80;25592;-73
2022/03/26 09:13:46;;;;;;;90.22;83.03;;;;;;;13.32;48.82;100645.86;1788507;80;25765;-73
2022/03/26 09:16:12;;;;;;;92.35;84.95;;;;;;;13.16;49.29;100637.90;1788494;80;25618;-72
2022/03/26 09:18:39;;;;;;;91.40;83.85;;;;;;;13.03;49.87;100637.73;1766285;80;27284;-75
2022/03/26 09:21:05;;;;;;;94.03;86.37;;;;;;;12.89;50.04;100636.51;1792432;80;25458;-72
2022/03/26 09:23:32;;;;;;;93.50;85.42;;;;;;;12.76;50.23;100642.06;1788482;80;25654;-73
2022/03/26 09:26:00;;;;;;;94.15;86.47;;;;;;;12.70;50.47;100640.03;1766291;80;25674;-72
2022/03/26 09:28:27;;;;;;;93.33;85.90;;;;;;;12.63;50.73;100636.44;1788532;80;25691;-73
2022/03/26 09:30:53;;;;;;;92.75;85.62;;;;;;;12.54;50.91;100638.31;1788592;80;27404;-73
2022/03/26 09:33:19;;;;;;;94.05;86.35;;;;;;;12.48;51.41;100642.27;1788418;80;25581;-73
2022/03/26 09:35:51;;;;;;;94.58;86.72;;;;;;;12.40;51.35;100645.77;1788531;80;25589;-71
2022/03/26 09:38:17;;;;;;;99.15;91.02;;;;;;;12.28;51.77;100641.71;1774858;80;25729;-73
2022/03/26 09:40:45;;;;;;;96.82;88.72;;;;;;;12.26;52.04;100639.05;1723275;81;25474;-72
2022/03/26 09:43:14;;;;;;;96.32;87.80;;;;;;;12.22;52.15;100638.88;1773205;80;27890;-73
2022/03/26 09:45:41;;;;;;;93.65;85.77;;;;;;;12.21;52.44;100635.12;1766615;80;25706;-73
2022/03/26 09:48:08;;;;;;;95.38;87.05;;;;;;;12.25;52.53;100636.91;1778872;79;25646;-74
2022/03/26 09:50:37;;;;;;;93.82;86.15;;;;;;;12.29;52.70;100637.08;1778277;80;26188;-73
2022/03/26 09:53:03;;;;;;;99.20;89.85;;;;;;;12.28;52.54;100643.06;1766407;80;25492;-73
2022/03/26 09:55:31;;;;;;;94.25;86.32;;;;;;;12.26;52.47;100646.66;1763802;80;27373;-73
2022/03/26 09:57:58;;;;;;;92.40;85.22;;;;;;;12.23;52.63;100642.41;1782104;79;25698;-73
2022/03/26 10:00:26;;;;;;;94.28;86.57;;;;;;;12.13;52.78;100654.31;1776859;80;25619;-73
2022/03/26 10:02:54;;;;;;;96.47;88.55;;;;;;;12.04;53.08;100652.12;1767009;79;26157;-74
2022/03/26 10:05:20;;;;;;;94.15;86.63;;;;;;;11.92;53.14;100663.52;1787429;80;25615;-73
2022/03/26 10:07:48;;;;;;;93.58;86.17;;;;;;;11.87;53.30;100652.78;1768043;80;27967;-72
2022/03/26 10:10:24;;;;;;;96.95;88.35;;;;;;;11.83;53.54;100661.27;1777735;79;25724;-74
2022/03/26 10:12:52;;;;;;;94.55;86.55;;;;;;;11.80;53.94;100654.56;1783206;80;25778;-74
2022/03/26 10:15:18;;;;;;;94.83;86.90;;;;;;;11.78;54.07;100668.95;1764801;80;26203;-73
2022/03/26 10:17:46;;;;;;;95.45;87.35;;;;;;;11.81;54.24;100660.77;1793641;80;25582;-74
2022/03/26 10:20:15;;;;;;;94.85;86.35;;;;;;;11.81;54.38;100666.20;1778436;80;27968;-73
2022/03/26 10:22:48;;;;;;;92.82;85.22;;;;;;;11.81;54.73;100664.28;1780689;80;25615;-72
2022/03/26 10:25:23;;;;;;;94.52;86.65;;;;;;;11.78;55.49;100658.11;1762989;80;25692;-75
2022/03/26 10:27:54;;;;;;;93.12;85.55;;;;;;;11.71;55.08;100668.05;1783885;79;26144;-69
2022/03/26 10:33:22;;;;;;;93.15;85.65;;;;;;;11.67;55.59;100680.59;1765076;80;27309;-68
2022/03/26 10:36:01;;;;;;;93.15;85.40;;;;;;;11.69;55.90;100677.02;1782743;79;25715;-71
2022/03/26 10:38:38;;;;;;;93.37;85.77;;;;;;;11.74;56.13;100670.13;1776727;80;25765;-69
2022/03/26 10:41:08;;;;;;;93.60;85.92;;;;;;;11.73;56.00;100679.38;1764078;80;25757;-69
2022/03/26 10:43:37;;;;;;;93.70;85.90;;;;;;;11.70;56.13;100681.91;1785577;80;25631;-70
2022/03/26 10:46:04;;;;;;;91.90;84.75;;;;;;;11.65;56.25;100674.69;1719729;82;27351;-69
2022/03/26 10:48:38;;;;;;;91.67;84.32;;;;;;;11.61;56.23;100679.09;1731140;82;25622;-70
2022/03/26 10:51:13;;;;;;;94.52;86.72;;;;;;;11.55;56.36;100685.20;1750420;82;25416;-74
2022/03/26 10:53:43;;;;;;;94.32;86.12;;;;;;;11.46;56.29;100678.09;1750201;82;25620;-76
2022/03/26 10:56:13;;;;;;;93.40;85.25;;;;;;;11.34;56.77;100667.25;1750277;81;25578;-77
2022/03/26 10:58:41;;;;;;;92.95;85.07;;;;;;;11.27;56.66;100675.53;1750162;81;27373;-72
2022/03/26 11:01:08;;;;;;;94.52;86.15;;;;;;;11.24;56.97;100681.02;1750200;81;25462;-73
2022/03/26 11:03:36;;;;;;;94.75;86.92;;;;;;;11.20;57.18;100682.71;1750260;82;25675;-73
2022/03/26 11:06:09;;;;;;;94.17;85.97;;;;;;;11.17;57.11;100677.37;1750212;82;25749;-74
2022/03/26 11:08:37;;;;;;;92.20;84.85;;;;;;;11.15;57.46;100672.81;1750215;82;25681;-74
2022/03/26 11:11:12;;;;;;;92.97;85.57;;;;;;;11.16;57.47;100681.73;1750314;81;27312;-75
2022/03/26 11:13:46;;;;;;;95.77;87.75;;;;;;;11.15;57.54;100671.99;1750495;81;25667;-72
2022/03/26 11:16:45;;;;;;;92.90;85.53;;;;;;;11.15;57.87;100663.34;1766364;79;25690;-72